createdAt,value
2023-05-05T00:00:12.201Z,47.36
2023-05-05T00:02:41.095Z,47.47
2023-05-05T00:05:08.127Z,47.42
2023-05-05T00:07:34.625Z,47.32
2023-05-05T00:10:01.069Z,47.58
2023-05-05T00:12:28.026Z,47.85
2023-05-05T00:14:59.568Z,47.91
2023-05-05T00:17:26.132Z,48.30
2023-05-05T00:19:52.796Z,48.21
2023-05-05T00:22:19.304Z,48.09
2023-05-05T00:24:45.812Z,47.97
2023-05-05T00:27:12.303Z,47.94
2023-05-05T00:29:38.910Z,48.06
2023-05-05T00:32:05.478Z,48.09
2023-05-05T00:34:31.981Z,47.89
2023-05-05T00:36:58.461Z,48.12
2023-05-05T00:39:25.234Z,48.04
2023-05-05T00:41:58.758Z,48.17
2023-05-05T00:44:39.207Z,48.36
2023-05-05T00:47:12.956Z,48.28
2023-05-05T00:49:39.906Z,48.27
2023-05-05T00:52:07.348Z,48.19
2023-05-05T00:54:38.152Z,48.02
2023-05-05T00:57:04.772Z,48.08
2023-05-05T00:59:34.013Z,48.02
2023-05-05T01:02:01.151Z,48.71
2023-05-05T01:04:30.535Z,48.70
2023-05-05T01:08:00.481Z,49.06
2023-05-05T01:11:24.478Z,48.88
2023-05-05T01:14:16.947Z,49.72
2023-05-05T01:17:05.457Z,50.35
2023-05-05T01:20:07.816Z,50.56
2023-05-05T01:22:51.281Z,50.13
2023-05-05T01:25:41.313Z,50.58
2023-05-05T01:28:48.468Z,50.41
2023-05-05T01:31:31.472Z,50.55
2023-05-05T01:34:08.446Z,50.59
2023-05-05T01:36:47.836Z,50.21
2023-05-05T01:39:16.992Z,49.93
2023-05-05T01:41:59.490Z,50.03
2023-05-05T01:44:29.535Z,49.68
2023-05-05T01:46:56.619Z,49.71
2023-05-05T01:49:23.830Z,50.04
2023-05-05T01:51:55.560Z,50.26
2023-05-05T01:54:25.767Z,50.28
2023-05-05T01:57:01.407Z,50.86
2023-05-05T01:59:28.916Z,50.63
2023-05-05T02:01:59.018Z,50.97
2023-05-05T02:04:29.848Z,51.43
2023-05-05T02:07:02.556Z,51.46
2023-05-05T02:09:45.576Z,51.05
2023-05-05T02:12:13.204Z,51.21
2023-05-05T02:14:44.031Z,51.72
2023-05-05T02:17:13.156Z,51.66
2023-05-05T02:19:45.684Z,51.74
2023-05-05T02:22:12.278Z,51.84
2023-05-05T02:24:38.878Z,52.20
2023-05-05T02:27:07.897Z,52.19
2023-05-05T02:29:41.904Z,52.47
2023-05-05T02:32:33.476Z,53.28
2023-05-05T02:35:10.839Z,52.64
2023-05-05T02:37:44.802Z,52.84
2023-05-05T02:40:27.212Z,52.44
2023-05-05T02:42:57.299Z,52.36
2023-05-05T02:45:26.650Z,52.92
2023-05-05T02:47:53.652Z,52.77
2023-05-05T02:50:20.812Z,52.31
2023-05-05T02:52:47.805Z,52.23
2023-05-05T02:55:15.116Z,52.70
2023-05-05T02:58:07.575Z,53.37
2023-05-05T03:00:47.808Z,52.67
2023-05-05T03:03:22.098Z,52.92
2023-05-05T03:06:05.124Z,52.97
2023-05-05T03:09:03.048Z,53.13
2023-05-05T03:11:38.301Z,53.21
2023-05-05T03:14:13.263Z,52.98
2023-05-05T03:16:49.035Z,52.55
2023-05-05T03:19:20.146Z,53.34
2023-05-05T03:21:48.124Z,53.12
2023-05-05T03:24:19.844Z,53.33
2023-05-05T03:26:49.896Z,53.31
2023-05-05T03:29:16.973Z,53.62
2023-05-05T03:31:43.537Z,53.24
2023-05-05T03:34:10.090Z,53.71
2023-05-05T03:36:39.844Z,54.07
2023-05-05T03:39:06.370Z,53.94
2023-05-05T03:41:35.792Z,54.38
2023-05-05T03:44:02.228Z,54.74
2023-05-05T03:46:28.834Z,54.70
2023-05-05T03:48:57.555Z,55.45
2023-05-05T03:51:24.953Z,55.31
2023-05-05T03:53:51.740Z,55.32
2023-05-05T03:56:18.214Z,55.88
2023-05-05T03:58:44.734Z,55.28
2023-05-05T04:01:11.682Z,55.22
2023-05-05T04:03:39.127Z,55.82
2023-05-05T04:06:06.016Z,55.68
2023-05-05T04:08:32.603Z,55.21
2023-05-05T04:10:59.174Z,54.69
2023-05-05T04:13:25.772Z,54.99
2023-05-05T04:15:52.303Z,55.19
2023-05-05T04:18:18.916Z,55.07
2023-05-05T04:20:55.487Z,55.38
2023-05-05T04:23:21.961Z,57.21
2023-05-05T04:25:48.416Z,55.18
2023-05-05T04:28:14.980Z,55.01
2023-05-05T04:30:41.596Z,55.50
2023-05-05T04:33:11.090Z,55.76
2023-05-05T04:35:37.881Z,56.00
2023-05-05T04:38:04.405Z,55.61
2023-05-05T04:40:31.179Z,55.38
2023-05-05T04:42:57.655Z,55.48
2023-05-05T04:45:25.092Z,54.94
2023-05-05T04:47:51.638Z,55.75
2023-05-05T04:50:18.143Z,55.60
2023-05-05T04:52:44.712Z,55.59
2023-05-05T04:55:11.524Z,55.72
2023-05-05T04:57:38.054Z,55.27
2023-05-05T05:00:05.597Z,54.83
2023-05-05T05:02:32.325Z,54.72
2023-05-05T05:04:58.934Z,54.97
2023-05-05T05:07:26.015Z,54.50
2023-05-05T05:09:52.572Z,55.40
2023-05-05T05:12:19.028Z,55.70
2023-05-05T05:14:45.556Z,55.91
2023-05-05T05:17:12.064Z,56.39
2023-05-05T05:19:39.071Z,56.55
2023-05-05T05:22:05.505Z,56.17
2023-05-05T05:24:31.957Z,55.60
2023-05-05T05:26:58.626Z,55.48
2023-05-05T05:29:25.303Z,55.07
2023-05-05T05:32:09.634Z,54.76
2023-05-05T05:34:36.299Z,54.33
2023-05-05T05:37:02.793Z,54.43
2023-05-05T05:39:29.265Z,53.58
2023-05-05T05:41:58.469Z,53.66
2023-05-05T05:44:25.068Z,53.69
2023-05-05T05:46:51.567Z,53.31
2023-05-05T05:49:18.072Z,53.43
2023-05-05T05:51:44.584Z,53.36
2023-05-05T05:54:11.088Z,53.59
2023-05-05T05:56:37.547Z,53.68
2023-05-05T05:59:07.970Z,53.42
2023-05-05T06:01:35.371Z,53.20
2023-05-05T06:04:04.784Z,53.35
2023-05-05T06:06:31.513Z,53.15
2023-05-05T06:08:58.019Z,52.83
2023-05-05T06:11:24.498Z,52.24
2023-05-05T06:13:53.521Z,51.73
2023-05-05T06:16:19.992Z,52.01
2023-05-05T06:18:57.763Z,51.82
2023-05-05T06:21:24.320Z,51.35
2023-05-05T06:23:50.953Z,50.84
2023-05-05T06:26:17.441Z,50.38
2023-05-05T06:28:44.039Z,49.62
2023-05-05T06:31:15.075Z,49.17
2023-05-05T06:33:41.681Z,48.61
2023-05-05T06:36:08.922Z,48.58
2023-05-05T06:38:35.467Z,48.31
2023-05-05T06:41:02.454Z,48.08
2023-05-05T06:43:29.466Z,48.02
2023-05-05T06:45:56.104Z,48.12
2023-05-05T06:48:22.565Z,47.93
2023-05-05T06:50:49.276Z,47.71
2023-05-05T06:53:15.939Z,47.88
2023-05-05T06:55:47.472Z,48.07
2023-05-05T06:58:14.205Z,48.04
2023-05-05T07:00:41.105Z,48.65
2023-05-05T07:03:08.015Z,48.67
2023-05-05T07:05:34.746Z,48.37
2023-05-05T07:08:01.382Z,48.42
2023-05-05T07:10:28.248Z,48.37
2023-05-05T07:12:55.252Z,48.31
2023-05-05T07:15:28.584Z,48.17
2023-05-05T07:17:56.507Z,47.94
2023-05-05T07:20:23.236Z,47.98
2023-05-05T07:22:49.888Z,48.02
2023-05-05T07:25:16.413Z,48.17
2023-05-05T07:27:43.228Z,48.47
2023-05-05T07:30:13.434Z,48.62
2023-05-05T07:32:43.083Z,48.65
2023-05-05T07:35:09.824Z,48.70
2023-05-05T07:37:36.350Z,48.41
2023-05-05T07:40:03.081Z,48.27
2023-05-05T07:42:38.317Z,48.18
2023-05-05T07:45:06.180Z,47.94
2023-05-05T07:47:38.860Z,48.00
2023-05-05T07:50:06.636Z,47.42
2023-05-05T07:52:45.206Z,47.28
2023-05-05T07:55:14.788Z,47.62
2023-05-05T07:57:41.441Z,47.33
2023-05-05T08:00:09.457Z,47.55
2023-05-05T08:02:36.334Z,46.69
2023-05-05T08:05:02.951Z,46.76
2023-05-05T08:07:29.430Z,46.82
2023-05-05T08:09:56.008Z,47.57
2023-05-05T08:12:22.545Z,47.25
2023-05-05T08:14:49.056Z,47.24
2023-05-05T08:17:22.805Z,46.96
2023-05-05T08:19:52.192Z,46.93
2023-05-05T08:22:18.911Z,46.76
2023-05-05T08:24:48.199Z,46.88
2023-05-05T08:27:14.932Z,47.20
2023-05-05T08:29:41.419Z,47.15
2023-05-05T08:32:11.156Z,47.50
2023-05-05T08:34:40.437Z,47.06
2023-05-05T08:37:06.992Z,46.70
2023-05-05T08:39:33.557Z,46.74
2023-05-05T08:42:00.135Z,46.85
2023-05-05T08:44:37.920Z,46.95
2023-05-05T08:47:05.600Z,46.74
2023-05-05T08:49:47.096Z,46.92
2023-05-05T08:52:24.165Z,46.55
2023-05-05T08:55:06.666Z,46.78
2023-05-05T08:57:57.661Z,46.40
2023-05-05T09:00:26.912Z,46.29
2023-05-05T09:02:58.099Z,46.27
2023-05-05T09:05:26.386Z,46.04
2023-05-05T09:07:53.328Z,45.48
2023-05-05T09:10:19.970Z,45.53
2023-05-05T09:12:46.756Z,45.10
2023-05-05T09:15:15.165Z,44.50
2023-05-05T09:17:42.981Z,44.49
2023-05-05T09:20:15.089Z,44.37
2023-05-05T09:22:44.558Z,43.98
2023-05-05T09:25:14.424Z,43.66
2023-05-05T09:27:46.985Z,44.20
2023-05-05T09:30:26.938Z,44.54
2023-05-05T09:32:55.314Z,44.25
2023-05-05T09:35:23.430Z,43.95
2023-05-05T09:37:49.968Z,44.08
2023-05-05T09:40:19.983Z,43.32
2023-05-05T09:42:47.532Z,43.87
2023-05-05T09:45:19.953Z,44.21
2023-05-05T09:47:47.963Z,44.04
2023-05-05T09:50:18.385Z,43.40
2023-05-05T09:53:02.461Z,43.88
2023-05-05T09:55:33.176Z,43.45
2023-05-05T09:58:29.751Z,42.88
2023-05-05T10:00:58.437Z,42.94
2023-05-05T10:03:25.929Z,43.20
2023-05-05T10:06:00.870Z,42.88
2023-05-05T10:08:31.282Z,42.80
2023-05-05T10:11:07.068Z,42.09
2023-05-05T10:13:37.896Z,42.30
2023-05-05T10:16:09.115Z,42.33
2023-05-05T10:18:41.657Z,42.29
2023-05-05T10:21:09.174Z,41.63
2023-05-05T10:23:49.344Z,41.40
2023-05-05T10:26:19.663Z,41.04
2023-05-05T10:28:55.474Z,40.85
2023-05-05T10:31:41.735Z,40.88
2023-05-05T10:34:22.758Z,40.40
2023-05-05T10:36:51.328Z,40.83
2023-05-05T10:39:19.872Z,40.70
2023-05-05T10:41:48.250Z,40.19
2023-05-05T10:44:15.449Z,41.27
2023-05-05T10:46:43.178Z,41.00
2023-05-05T10:49:37.378Z,40.98
2023-05-05T10:52:25.830Z,40.85
2023-05-05T10:55:37.078Z,40.42
2023-05-05T10:58:03.590Z,40.56
2023-05-05T11:00:39.547Z,39.67
2023-05-05T11:03:18.162Z,39.82
2023-05-05T11:06:14.110Z,38.89
2023-05-05T11:08:43.705Z,39.35
2023-05-05T11:11:12.354Z,39.33
2023-05-05T11:13:40.531Z,39.30
2023-05-05T11:16:48.126Z,38.41
2023-05-05T11:19:42.605Z,36.99
2023-05-05T11:22:10.672Z,37.85
2023-05-05T11:24:39.576Z,37.62
2023-05-05T11:27:06.848Z,36.94
2023-05-05T11:30:06.800Z,36.83
2023-05-05T11:32:36.632Z,36.62
2023-05-05T11:35:03.968Z,36.86
2023-05-05T11:37:30.482Z,36.62
2023-05-05T11:40:30.778Z,36.65
2023-05-05T11:43:07.300Z,35.98
2023-05-05T11:45:34.593Z,36.87
2023-05-05T11:48:27.009Z,36.62
2023-05-05T11:50:54.571Z,37.47
2023-05-05T11:53:21.277Z,37.96
2023-05-05T11:55:47.830Z,38.22
2023-05-05T11:58:20.958Z,37.40
2023-05-05T12:00:47.937Z,38.55
2023-05-05T12:03:14.691Z,39.88
2023-05-05T12:05:41.753Z,40.64
2023-05-05T12:08:08.397Z,42.95
2023-05-05T12:10:34.887Z,43.76
2023-05-05T12:13:01.444Z,44.45
2023-05-05T12:15:30.393Z,45.63
2023-05-05T12:17:56.926Z,45.40
2023-05-05T12:20:34.410Z,45.58
2023-05-05T12:23:04.780Z,46.16
2023-05-05T12:25:40.909Z,47.22
2023-05-05T12:28:08.949Z,47.49
2023-05-05T12:30:35.896Z,48.16
2023-05-05T12:33:05.209Z,48.32
2023-05-05T12:35:33.248Z,48.13
2023-05-05T12:37:59.838Z,48.69
2023-05-05T12:40:52.862Z,48.55
2023-05-05T12:43:35.302Z,50.25
2023-05-05T12:46:10.939Z,50.05
2023-05-05T12:48:40.744Z,50.06
2023-05-05T12:51:20.546Z,50.49
2023-05-05T12:53:49.382Z,48.30
2023-05-05T12:56:35.028Z,47.53
2023-05-05T12:59:07.499Z,47.58
2023-05-05T13:01:56.124Z,48.69
2023-05-05T13:04:25.588Z,48.46
2023-05-05T13:07:14.072Z,50.31
2023-05-05T13:09:40.794Z,46.74
2023-05-05T13:12:12.587Z,46.07
2023-05-05T13:14:40.644Z,45.71
2023-05-05T13:17:07.165Z,45.59
2023-05-05T13:19:35.640Z,45.94
2023-05-05T13:22:02.252Z,46.33
2023-05-05T13:24:38.601Z,46.47
2023-05-05T13:27:13.716Z,46.36
2023-05-05T13:29:41.528Z,45.90
2023-05-05T13:32:07.992Z,45.09
2023-05-05T13:34:34.765Z,45.54
2023-05-05T13:37:01.325Z,45.67
2023-05-05T13:39:27.808Z,45.27
2023-05-05T13:41:54.283Z,45.72
2023-05-05T13:44:20.998Z,46.03
2023-05-05T13:46:47.714Z,45.93
2023-05-05T13:49:14.255Z,44.94
2023-05-05T13:51:40.822Z,44.99
2023-05-05T13:54:07.517Z,45.20
2023-05-05T13:56:34.741Z,45.91
2023-05-05T13:59:02.310Z,46.05
2023-05-05T14:01:29.628Z,46.02
2023-05-05T14:03:57.541Z,46.13
2023-05-05T14:06:24.812Z,45.51
2023-05-05T14:08:54.012Z,46.18
2023-05-05T14:11:20.962Z,46.94
2023-05-05T14:13:48.024Z,47.83
2023-05-05T14:16:14.777Z,49.36
2023-05-05T14:18:44.130Z,49.85
2023-05-05T14:21:11.160Z,50.44
2023-05-05T14:23:41.276Z,50.48
2023-05-05T14:26:08.879Z,50.90
2023-05-05T14:28:35.615Z,51.04
2023-05-05T14:31:02.116Z,50.69
2023-05-05T14:33:28.647Z,50.38
2023-05-05T14:35:55.665Z,50.14
2023-05-05T14:38:22.199Z,50.20
2023-05-05T14:40:48.746Z,49.92
2023-05-05T14:43:15.310Z,49.36
2023-05-05T14:45:42.020Z,48.73
2023-05-05T14:48:08.796Z,48.88
2023-05-05T14:50:35.360Z,48.59
2023-05-05T14:53:01.906Z,49.22
2023-05-05T14:55:28.493Z,48.99
2023-05-05T14:57:55.002Z,48.86
2023-05-05T15:00:26.434Z,48.57
2023-05-05T15:02:53.041Z,48.75
2023-05-05T15:05:19.594Z,49.41
2023-05-05T15:07:46.164Z,49.80
2023-05-05T15:10:12.739Z,50.15
2023-05-05T15:12:39.279Z,49.77
2023-05-05T15:15:09.222Z,48.39
2023-05-05T15:17:44.551Z,47.64
2023-05-05T15:20:11.632Z,47.55
2023-05-05T15:22:38.349Z,47.71
2023-05-05T15:25:08.959Z,47.66
2023-05-05T15:27:37.124Z,46.99
2023-05-05T15:30:04.795Z,47.43
2023-05-05T15:32:31.954Z,47.16
2023-05-05T15:34:58.626Z,47.24
2023-05-05T15:37:27.383Z,47.33
2023-05-05T15:39:55.171Z,48.19
2023-05-05T15:42:21.717Z,48.50
2023-05-05T15:44:48.212Z,48.80
2023-05-05T15:47:14.849Z,48.23
2023-05-05T15:49:41.357Z,47.85
2023-05-05T15:52:07.998Z,47.90
2023-05-05T15:54:34.875Z,47.20
2023-05-05T15:57:03.034Z,47.16
2023-05-05T15:59:29.504Z,46.69
2023-05-05T16:01:56.130Z,46.92
2023-05-05T16:04:22.580Z,46.36
2023-05-05T16:06:49.092Z,45.70
2023-05-05T16:09:15.640Z,45.59
2023-05-05T16:11:42.197Z,45.43
2023-05-05T16:14:08.695Z,45.52
2023-05-05T16:16:35.377Z,45.54
2023-05-05T16:19:01.952Z,44.83
2023-05-05T16:21:28.461Z,44.31
2023-05-05T16:23:56.940Z,44.12
2023-05-05T16:26:23.473Z,43.94
2023-05-05T16:28:50.282Z,43.95
2023-05-05T16:31:16.843Z,44.01
2023-05-05T16:33:43.669Z,43.84
2023-05-05T16:36:12.194Z,44.32
2023-05-05T16:38:42.092Z,44.46
2023-05-05T16:41:08.657Z,44.82
2023-05-05T16:43:37.040Z,45.16
2023-05-05T16:46:04.193Z,45.07
2023-05-05T16:48:30.810Z,45.07
2023-05-05T16:50:57.940Z,45.12
2023-05-05T16:53:25.012Z,45.37
2023-05-05T16:55:53.126Z,45.67
2023-05-05T16:58:22.295Z,46.12
2023-05-05T17:00:50.394Z,46.30
2023-05-05T17:03:18.921Z,45.55
2023-05-05T17:05:49.808Z,45.38
2023-05-05T17:08:16.760Z,45.78
2023-05-05T17:10:45.304Z,46.55
2023-05-05T17:13:14.100Z,46.78
2023-05-05T17:15:41.388Z,47.30
2023-05-05T17:18:08.700Z,49.06
2023-05-05T17:20:37.430Z,51.28
2023-05-05T17:23:04.820Z,52.53
2023-05-05T17:25:31.924Z,53.49
2023-05-05T17:27:58.483Z,54.28
2023-05-05T17:30:25.226Z,54.27
2023-05-05T17:32:52.037Z,54.66
2023-05-05T17:35:18.894Z,55.47
2023-05-05T17:37:45.626Z,55.29
2023-05-05T17:40:12.307Z,55.98
2023-05-05T17:42:38.923Z,56.68
2023-05-05T17:45:06.609Z,56.64
2023-05-05T17:47:33.296Z,57.00
2023-05-05T17:50:00.098Z,56.96
2023-05-05T17:52:26.942Z,56.62
2023-05-05T17:54:53.462Z,56.57
2023-05-05T17:57:22.787Z,56.77
2023-05-05T17:59:50.043Z,56.75
2023-05-05T18:02:17.051Z,56.37
2023-05-05T18:04:43.730Z,56.83
2023-05-05T18:07:12.190Z,57.12
2023-05-05T18:09:39.102Z,57.05
2023-05-05T18:12:06.821Z,57.39
2023-05-05T18:14:33.901Z,57.48
2023-05-05T18:17:01.214Z,57.58
2023-05-05T18:19:30.018Z,57.44
2023-05-05T18:21:57.429Z,58.10
2023-05-05T18:24:24.018Z,57.98
2023-05-05T18:26:53.157Z,58.10
2023-05-05T18:29:21.745Z,57.94
2023-05-05T18:31:51.751Z,58.46
2023-05-05T18:34:20.342Z,58.31
2023-05-05T18:36:52.736Z,58.05
2023-05-05T18:39:26.653Z,58.38
2023-05-05T18:41:53.340Z,58.26
2023-05-05T18:44:20.208Z,57.81
2023-05-05T18:46:48.217Z,57.62
2023-05-05T18:49:15.275Z,58.10
2023-05-05T18:51:41.903Z,58.67
2023-05-05T18:54:08.419Z,59.41
2023-05-05T18:56:35.000Z,59.94
2023-05-05T18:59:01.538Z,60.51
2023-05-05T19:01:28.080Z,60.78
2023-05-05T19:03:54.624Z,60.96
2023-05-05T19:06:21.155Z,60.60
2023-05-05T19:08:47.963Z,60.25
2023-05-05T19:11:14.991Z,60.58
2023-05-05T19:13:41.763Z,60.28
2023-05-05T19:16:08.486Z,60.16
2023-05-05T19:18:35.200Z,60.18
2023-05-05T19:21:02.345Z,60.62
2023-05-05T19:23:31.778Z,60.60
2023-05-05T19:26:00.363Z,60.73
2023-05-05T19:28:26.940Z,61.17
2023-05-05T19:30:53.531Z,60.71
2023-05-05T19:33:20.160Z,60.90
2023-05-05T19:35:47.054Z,61.18
2023-05-05T19:38:13.656Z,61.66
2023-05-05T19:40:41.096Z,62.25
2023-05-05T19:43:08.322Z,63.22
2023-05-05T19:45:37.630Z,62.93
2023-05-05T19:48:04.647Z,62.51
2023-05-05T19:50:31.551Z,62.74
2023-05-05T19:52:58.326Z,62.82
2023-05-05T19:55:25.049Z,62.76
2023-05-05T19:57:51.585Z,62.63
2023-05-05T20:00:19.529Z,62.56
2023-05-05T20:02:46.416Z,63.49
2023-05-05T20:05:14.865Z,63.59
2023-05-05T20:07:44.334Z,63.64
2023-05-05T20:10:12.984Z,63.44
2023-05-05T20:12:42.395Z,63.91
2023-05-05T20:15:11.170Z,63.99
2023-05-05T20:17:37.694Z,62.96
2023-05-05T20:20:04.841Z,62.45
2023-05-05T20:22:31.527Z,62.21
2023-05-05T20:24:58.204Z,62.65
2023-05-05T20:27:28.746Z,62.75
2023-05-05T20:29:55.407Z,63.19
2023-05-05T20:32:21.972Z,62.82
2023-05-05T20:34:48.604Z,63.25
2023-05-05T20:37:15.248Z,63.34
2023-05-05T20:39:43.635Z,63.25
2023-05-05T20:42:10.792Z,63.02
2023-05-05T20:44:37.620Z,63.42
2023-05-05T20:47:04.706Z,63.49
2023-05-05T20:49:31.426Z,62.75
2023-05-05T20:51:58.759Z,62.43
2023-05-05T20:54:25.240Z,62.35
2023-05-05T20:56:53.027Z,62.51
2023-05-05T20:59:19.531Z,63.35
2023-05-05T21:01:46.129Z,63.25
2023-05-05T21:04:12.652Z,62.88
2023-05-05T21:06:39.081Z,62.96
2023-05-05T21:09:05.660Z,63.23
2023-05-05T21:11:32.275Z,63.95
2023-05-05T21:13:58.811Z,63.10
2023-05-05T21:16:25.500Z,63.11
2023-05-05T21:19:00.669Z,62.77
2023-05-05T21:21:29.766Z,62.75
2023-05-05T21:23:57.565Z,62.90
2023-05-05T21:26:25.035Z,63.34
2023-05-05T21:28:52.523Z,63.80
2023-05-05T21:31:22.150Z,64.79
2023-05-05T21:33:51.763Z,64.63
2023-05-05T21:36:25.705Z,65.18
2023-05-05T21:38:56.697Z,65.54
2023-05-05T21:41:24.490Z,65.43
2023-05-05T21:43:51.002Z,65.49
2023-05-05T21:46:20.358Z,65.00
2023-05-05T21:48:50.275Z,66.07
2023-05-05T21:51:17.339Z,66.03
2023-05-05T21:53:43.990Z,66.20
2023-05-05T21:56:10.541Z,66.33
2023-05-05T21:58:37.078Z,65.73
2023-05-05T22:01:03.723Z,65.40
2023-05-05T22:03:30.435Z,65.65
2023-05-05T22:06:04.888Z,65.55
2023-05-05T22:08:31.413Z,66.17
2023-05-05T22:11:00.514Z,65.94
2023-05-05T22:13:26.996Z,65.82
2023-05-05T22:15:58.698Z,64.92
2023-05-05T22:18:25.272Z,65.28
2023-05-05T22:20:52.133Z,65.62
2023-05-05T22:23:18.703Z,65.55
2023-05-05T22:25:45.350Z,64.66
2023-05-05T22:28:11.988Z,64.52
2023-05-05T22:30:40.653Z,64.67
2023-05-05T22:33:16.791Z,65.21
2023-05-05T22:35:43.322Z,65.68
2023-05-05T22:38:09.880Z,65.50
2023-05-05T22:40:36.425Z,65.57
2023-05-05T22:43:02.910Z,65.91
2023-05-05T22:45:31.468Z,65.50
2023-05-05T22:47:58.013Z,65.39
2023-05-05T22:50:24.659Z,65.20
2023-05-05T22:52:51.181Z,64.75
2023-05-05T22:55:17.797Z,64.70
2023-05-05T22:57:44.326Z,64.62
2023-05-05T23:00:11.293Z,65.33
2023-05-05T23:02:38.851Z,65.75
2023-05-05T23:05:05.920Z,66.14
2023-05-05T23:07:32.407Z,66.61
2023-05-05T23:10:07.790Z,65.95
2023-05-05T23:12:43.001Z,65.32
2023-05-05T23:15:10.642Z,66.11
2023-05-05T23:17:37.398Z,65.83
2023-05-05T23:20:04.496Z,66.40
2023-05-05T23:22:41.333Z,65.74
2023-05-05T23:25:11.554Z,65.22
2023-05-05T23:27:44.995Z,65.42
2023-05-05T23:30:12.438Z,64.74
2023-05-05T23:32:39.034Z,64.52
2023-05-05T23:35:20.183Z,65.31
2023-05-05T23:37:46.694Z,65.81
2023-05-05T23:40:13.214Z,66.01
2023-05-05T23:42:48.399Z,66.09
2023-05-05T23:45:15.981Z,65.75
2023-05-05T23:47:43.505Z,64.76
2023-05-05T23:50:10.185Z,65.13
2023-05-05T23:52:36.675Z,65.68
2023-05-05T23:55:03.334Z,65.98
2023-05-05T23:57:29.821Z,65.35
2023-05-05T23:59:56.271Z,65.23
